Feed Springs, Ohio
Current Conditions -  °F | °C
As of 7:18 AM on Thursday 23 Oct 2014 (Local Time) from KPHD Reporting Station
Broken Clouds Broken Clouds  
Wind Chill: 41°   Ceiling: 2100
Heat Index: 44°   Visibility: 7mi
Dew Point: 42°   Wind: 6mph
Humidity: 93%   Direction: 310°NW
Pressure: 30.2"   Gusts: NA
Location:  40.3767°N, 81.2875°W
Report Text: KPHD 231118Z AUTO 31005KT 7SM SCT008 BKN021 07/06 A3020 RMK AO2 T00670056
Loading
Personal Weather Stations






























Interactive Weather Map
Tropical Storm Tracking
New forecast layout! Learn more

10-Day Weather Forecast

Advertisements
Track Severe Weather on mobile